createdAt,value
2019-03-10T00:00:23.451Z,49.03
2019-03-10T00:03:53.651Z,49.03
2019-03-10T00:07:24.695Z,49.01
2019-03-10T00:10:54.747Z,49
2019-03-10T00:14:24.803Z,49
2019-03-10T00:17:54.952Z,49.01
2019-03-10T00:21:25.004Z,49.02
2019-03-10T00:24:55.207Z,49.03
2019-03-10T00:28:25.268Z,49.03
2019-03-10T00:31:55.500Z,49.06
2019-03-10T00:35:25.682Z,49.08
2019-03-10T00:39:12.874Z,49.1
2019-03-10T00:50:31.930Z,49.19
2019-03-10T00:54:01.933Z,49.26
2019-03-10T00:57:32.255Z,49.32
2019-03-10T01:01:02.400Z,49.39
2019-03-10T01:04:32.508Z,49.43
2019-03-10T01:08:03.561Z,49.48
2019-03-10T01:11:33.849Z,49.53
2019-03-10T01:15:04.785Z,49.57
2019-03-10T01:18:35.738Z,49.65
2019-03-10T01:22:05.759Z,49.67
2019-03-10T01:25:35.799Z,49.7
2019-03-10T01:29:05.713Z,49.78
2019-03-10T01:35:00.364Z,49.84
2019-03-10T01:38:30.429Z,49.89
2019-03-10T01:42:00.580Z,49.96
2019-03-10T01:45:30.632Z,50.03
2019-03-10T01:49:00.696Z,50.12
2019-03-10T01:52:30.778Z,50.22
2019-03-10T01:56:00.909Z,50.32
2019-03-10T01:59:30.881Z,50.41
2019-03-10T02:00:17.081Z,50.45
2019-03-10T02:03:47.073Z,50.58
2019-03-10T02:07:17.056Z,50.68
2019-03-10T02:10:48.137Z,50.81
2019-03-10T02:14:18.309Z,50.93
2019-03-10T02:17:48.381Z,51.05
2019-03-10T02:21:18.442Z,51.17
2019-03-10T02:24:48.490Z,51.27
2019-03-10T02:28:18.417Z,51.4
2019-03-10T02:31:48.569Z,51.51
2019-03-10T02:35:18.670Z,51.65
2019-03-10T02:38:48.723Z,51.78
2019-03-10T02:42:18.785Z,51.88
2019-03-10T02:45:48.912Z,52
2019-03-10T02:49:19.030Z,52.06
2019-03-10T02:52:49.181Z,52.17
2019-03-10T02:56:19.321Z,52.26
2019-03-10T02:59:49.456Z,52.33
2019-03-10T03:03:19.577Z,52.41
2019-03-10T03:06:49.669Z,52.49
2019-03-10T03:10:19.701Z,52.55
2019-03-10T03:13:50.784Z,52.59
2019-03-10T03:17:20.926Z,52.68
2019-03-10T03:20:51.087Z,52.71
2019-03-10T03:24:21.152Z,52.79
2019-03-10T03:27:51.181Z,52.84
2019-03-10T03:31:21.178Z,52.9
2019-03-10T03:34:51.319Z,52.95
2019-03-10T03:38:24.468Z,53.01
2019-03-10T03:41:54.493Z,53.09
2019-03-10T03:45:24.553Z,53.13
2019-03-10T03:48:54.674Z,53.19
2019-03-10T03:52:24.715Z,53.23
2019-03-10T03:55:55.097Z,53.3
2019-03-10T03:59:25.199Z,53.33
2019-03-10T04:00:17.130Z,53.35
2019-03-10T04:03:47.416Z,53.4
2019-03-10T04:07:17.533Z,53.47
2019-03-10T04:10:47.599Z,53.52
2019-03-10T04:14:17.758Z,53.57
2019-03-10T04:17:47.849Z,53.62
2019-03-10T04:21:17.855Z,53.68
2019-03-10T04:24:47.974Z,53.76
2019-03-10T04:28:18.026Z,53.8
2019-03-10T04:31:48.007Z,53.87
2019-03-10T04:35:18.029Z,53.92
2019-03-10T04:38:48.131Z,53.99
2019-03-10T04:42:18.133Z,54.07
2019-03-10T04:45:48.267Z,54.12
2019-03-10T04:49:18.236Z,54.17
2019-03-10T04:52:48.319Z,54.26
2019-03-10T04:56:24.672Z,54.3
2019-03-10T04:59:54.643Z,54.36
2019-03-10T05:03:24.666Z,54.42
2019-03-10T05:06:54.739Z,54.45
2019-03-10T05:10:25.249Z,54.52
2019-03-10T05:13:55.596Z,54.56
2019-03-10T05:17:26.554Z,54.63
2019-03-10T05:20:56.605Z,54.66
2019-03-10T05:24:26.708Z,54.71
2019-03-10T05:27:56.877Z,54.78
2019-03-10T05:31:26.931Z,54.84
2019-03-10T05:34:57.063Z,54.92
2019-03-10T05:38:27.025Z,55
2019-03-10T05:41:57.167Z,55.09
2019-03-10T05:45:27.220Z,55.17
2019-03-10T05:48:57.341Z,55.25
2019-03-10T05:52:27.393Z,55.37
2019-03-10T05:55:57.556Z,55.46
2019-03-10T05:59:27.627Z,55.56
2019-03-10T06:00:17.637Z,55.59
2019-03-10T06:03:47.770Z,55.69
2019-03-10T06:07:17.782Z,55.78
2019-03-10T06:10:48.013Z,55.89
2019-03-10T06:14:18.058Z,56
2019-03-10T06:17:49.050Z,56.06
2019-03-10T06:21:19.149Z,56.17
2019-03-10T06:24:49.372Z,56.24
2019-03-10T06:28:19.360Z,56.31
2019-03-10T06:31:49.466Z,56.41
2019-03-10T06:35:19.639Z,56.44
2019-03-10T06:38:49.740Z,56.5
2019-03-10T06:42:19.782Z,56.56
2019-03-10T06:45:49.844Z,56.62
2019-03-10T06:49:19.907Z,56.68
2019-03-10T06:52:50.044Z,56.72
2019-03-10T06:56:20.040Z,56.78
2019-03-10T06:59:50.236Z,56.83
2019-03-10T07:03:20.786Z,56.87
2019-03-10T07:06:51.067Z,56.9
2019-03-10T07:10:21.068Z,56.93
2019-03-10T07:13:51.121Z,56.95
2019-03-10T07:17:21.199Z,57
2019-03-10T07:20:51.385Z,57.03
2019-03-10T07:24:21.387Z,57.09
2019-03-10T07:27:56.952Z,57.12
2019-03-10T07:31:32.342Z,57.15
2019-03-10T07:37:28.746Z,57.24
2019-03-10T07:43:24.298Z,57.29
2019-03-10T07:47:06.351Z,57.31
2019-03-10T07:50:46.163Z,57.37
2019-03-10T07:54:22.925Z,57.39
2019-03-10T07:58:01.642Z,57.47
2019-03-10T08:01:28.657Z,57.52
2019-03-10T08:05:08.132Z,57.59
2019-03-10T08:08:49.453Z,57.69
2019-03-10T08:12:57.786Z,57.77
2019-03-10T08:16:39.489Z,57.86
2019-03-10T08:20:20.581Z,57.95
2019-03-10T08:23:57.833Z,57.99
2019-03-10T08:31:02.149Z,58.04
2019-03-10T08:34:47.672Z,57.98
2019-03-10T08:40:54.694Z,57.73
2019-03-10T08:44:38.466Z,57.49
2019-03-10T08:49:20.269Z,57.26
2019-03-10T08:52:55.911Z,56.93
2019-03-10T08:56:31.928Z,56.61
2019-03-10T09:00:08.439Z,56.28
2019-03-10T09:03:48.458Z,55.95
2019-03-10T09:10:10.043Z,55.37
2019-03-10T09:14:20.167Z,55
2019-03-10T09:17:59.518Z,54.57
2019-03-10T09:21:45.510Z,54.23
2019-03-10T09:25:25.038Z,53.82
2019-03-10T09:29:03.531Z,53.47
2019-03-10T09:32:43.970Z,53.08
2019-03-10T09:38:39.094Z,52.49
2019-03-10T09:42:19.343Z,52.15
2019-03-10T09:46:27.656Z,51.82
2019-03-10T09:50:09.758Z,51.43
2019-03-10T09:53:58.300Z,51.1
2019-03-10T09:58:42.884Z,50.76
2019-03-10T10:00:27.145Z,50.48
2019-03-10T10:04:05.653Z,50.17
2019-03-10T10:07:48.900Z,49.8
2019-03-10T10:11:23.871Z,49.44
2019-03-10T10:15:08.737Z,49.11
2019-03-10T10:18:46.027Z,48.74
2019-03-10T10:25:48.751Z,48.18
2019-03-10T10:30:33.474Z,47.7
2019-03-10T10:39:57.855Z,46.72
2019-03-10T10:45:13.273Z,46.19
2019-03-10T10:48:51.855Z,45.63
2019-03-10T10:52:31.505Z,45.24
2019-03-10T10:56:10.673Z,44.85
2019-03-10T11:00:04.776Z,44.42
2019-03-10T11:03:45.906Z,43.96
2019-03-10T11:09:41.650Z,43.26
2019-03-10T11:16:17.645Z,42.49
2019-03-10T11:22:49.288Z,41.76
2019-03-10T11:26:25.511Z,41.25
2019-03-10T11:30:07.685Z,40.82
2019-03-10T11:34:49.847Z,40.39
2019-03-10T11:39:33.400Z,39.86
2019-03-10T11:44:17.293Z,39.34
2019-03-10T11:47:54.566Z,38.77
2019-03-10T11:51:32.138Z,38.39
2019-03-10T11:56:15.337Z,37.97
2019-03-10T11:59:53.824Z,37.48
2019-03-10T12:01:31.315Z,37.42
2019-03-10T12:05:12.917Z,36.95
2019-03-10T12:08:52.760Z,36.56
2019-03-10T12:12:22.903Z,36.2
2019-03-10T12:15:53.095Z,35.87
2019-03-10T12:19:23.187Z,35.52
2019-03-10T12:22:53.350Z,35.21
2019-03-10T12:26:23.472Z,34.86
2019-03-10T12:29:54.505Z,34.55
2019-03-10T12:33:24.507Z,34.26
2019-03-10T12:36:54.563Z,33.93
2019-03-10T12:40:24.667Z,33.62
2019-03-10T12:43:54.724Z,33.27
2019-03-10T12:47:24.825Z,32.98
2019-03-10T12:50:54.887Z,32.68
2019-03-10T12:54:24.969Z,32.39
2019-03-10T12:57:55.081Z,32.06
2019-03-10T13:01:25.187Z,31.8
2019-03-10T13:04:55.296Z,31.52
2019-03-10T13:08:25.465Z,31.25
2019-03-10T13:11:55.581Z,30.96
2019-03-10T13:15:25.673Z,30.71
2019-03-10T13:18:55.815Z,30.43
2019-03-10T13:22:25.858Z,30.17
2019-03-10T13:25:56.080Z,29.93
2019-03-10T13:29:26.253Z,29.68
2019-03-10T13:32:58.115Z,29.43
2019-03-10T13:36:28.147Z,29.19
2019-03-10T13:39:58.310Z,28.94
2019-03-10T13:43:28.386Z,28.71
2019-03-10T13:46:58.575Z,28.5
2019-03-10T13:50:28.638Z,28.27
2019-03-10T13:53:58.779Z,28.03
2019-03-10T13:57:28.802Z,27.82
2019-03-10T14:00:17.783Z,27.63
2019-03-10T14:03:47.926Z,27.42
2019-03-10T14:07:17.969Z,27.21
2019-03-10T14:10:48.030Z,27
2019-03-10T14:14:18.080Z,26.79
2019-03-10T14:17:48.145Z,26.57
2019-03-10T14:21:18.259Z,26.37
2019-03-10T14:24:48.290Z,26.17
2019-03-10T14:28:18.562Z,25.97
2019-03-10T14:31:48.685Z,25.76
2019-03-10T14:35:19.758Z,25.57
2019-03-10T14:38:49.821Z,25.37
2019-03-10T14:42:19.915Z,25.17
2019-03-10T14:45:50.038Z,24.98
2019-03-10T14:49:23.463Z,24.77
2019-03-10T14:52:53.740Z,24.59
2019-03-10T14:56:23.852Z,24.41
2019-03-10T14:59:53.825Z,24.25
2019-03-10T15:03:23.924Z,24.09
2019-03-10T15:06:54.050Z,23.97
2019-03-10T15:10:24.225Z,23.83
2019-03-10T15:13:54.316Z,23.71
2019-03-10T15:17:24.427Z,23.6
2019-03-10T15:20:54.502Z,23.49
2019-03-10T15:24:24.572Z,23.4
2019-03-10T15:27:54.644Z,23.31
2019-03-10T15:31:24.757Z,23.25
2019-03-10T15:34:54.799Z,23.18
2019-03-10T15:38:25.881Z,23.1
2019-03-10T15:41:55.883Z,23.03
2019-03-10T15:45:27.808Z,22.98
2019-03-10T15:48:58.178Z,22.91
2019-03-10T15:52:28.251Z,22.87
2019-03-10T15:55:58.314Z,22.81
2019-03-10T15:59:28.445Z,22.77
2019-03-10T16:00:17.304Z,22.76
2019-03-10T16:03:47.463Z,22.72
2019-03-10T16:07:17.531Z,22.72
2019-03-10T16:10:47.635Z,22.7
2019-03-10T16:14:17.715Z,22.72
2019-03-10T16:17:47.883Z,22.76
2019-03-10T16:21:18.046Z,22.75
2019-03-10T16:24:48.034Z,22.81
2019-03-10T16:28:18.143Z,22.85
2019-03-10T16:31:48.296Z,22.9
2019-03-10T16:35:18.338Z,22.95
2019-03-10T16:38:50.038Z,23.02
2019-03-10T16:42:20.252Z,23.09
2019-03-10T16:45:50.244Z,23.17
2019-03-10T16:49:20.307Z,23.24
2019-03-10T16:52:50.349Z,23.32
2019-03-10T16:56:31.161Z,23.4
2019-03-10T17:00:01.236Z,23.49
2019-03-10T17:03:31.375Z,23.57
2019-03-10T17:07:01.378Z,23.68
2019-03-10T17:10:31.429Z,23.8
2019-03-10T17:14:02.962Z,23.88
2019-03-10T17:17:33.206Z,23.97
2019-03-10T17:21:03.320Z,24.07
2019-03-10T17:24:33.368Z,24.15
2019-03-10T17:28:03.552Z,24.25
2019-03-10T17:31:33.762Z,24.34
2019-03-10T17:35:04.114Z,24.45
2019-03-10T17:38:34.266Z,24.54
2019-03-10T17:42:04.512Z,24.63
2019-03-10T17:45:34.581Z,24.73
2019-03-10T17:49:04.713Z,24.83
2019-03-10T17:52:34.855Z,24.93
2019-03-10T17:56:05.026Z,25.02
2019-03-10T17:59:35.089Z,25.15
2019-03-10T18:00:18.860Z,25.14
2019-03-10T18:03:48.871Z,25.27
2019-03-10T18:07:19.014Z,25.37
2019-03-10T18:10:49.106Z,25.47
2019-03-10T18:14:19.208Z,25.58
2019-03-10T18:17:49.249Z,25.69
2019-03-10T18:21:19.332Z,25.8
2019-03-10T18:24:49.324Z,25.91
2019-03-10T18:28:19.496Z,26.02
2019-03-10T18:31:49.582Z,26.12
2019-03-10T18:35:19.720Z,26.23
2019-03-10T18:38:49.827Z,26.34
2019-03-10T18:42:20.864Z,26.44
2019-03-10T18:45:50.944Z,26.57
2019-03-10T18:49:21.052Z,26.69
2019-03-10T18:52:51.128Z,26.8
2019-03-10T18:56:21.213Z,26.9
2019-03-10T18:59:51.261Z,27.01
2019-03-10T19:03:21.496Z,27.12
2019-03-10T19:06:51.443Z,27.23
2019-03-10T19:10:21.501Z,27.34
2019-03-10T19:13:51.643Z,27.47
2019-03-10T19:17:21.765Z,27.6
2019-03-10T19:20:51.943Z,27.72
2019-03-10T19:24:22.141Z,27.89
2019-03-10T19:27:52.175Z,28.06
2019-03-10T19:31:22.394Z,28.21
2019-03-10T19:34:52.457Z,28.37
2019-03-10T19:38:22.508Z,28.53
2019-03-10T19:41:52.519Z,28.73
2019-03-10T19:45:22.731Z,28.92
2019-03-10T19:48:52.883Z,29.08
2019-03-10T19:52:22.945Z,29.28
2019-03-10T19:55:52.957Z,29.5
2019-03-10T19:59:23.089Z,29.67
2019-03-10T20:00:17.310Z,29.7
2019-03-10T20:03:47.232Z,29.91
2019-03-10T20:07:17.323Z,30.09
2019-03-10T20:10:47.409Z,30.28
2019-03-10T20:14:17.468Z,30.48
2019-03-10T20:17:47.592Z,30.65
2019-03-10T20:21:17.665Z,30.82
2019-03-10T20:24:47.764Z,31.02
2019-03-10T20:28:17.832Z,31.19
2019-03-10T20:31:47.908Z,31.34
2019-03-10T20:35:18.020Z,31.52
2019-03-10T20:38:48.142Z,31.67
2019-03-10T20:42:18.244Z,31.82
2019-03-10T20:45:49.249Z,31.97
2019-03-10T20:49:19.378Z,32.16
2019-03-10T20:52:49.460Z,32.3
2019-03-10T20:56:19.674Z,32.46
2019-03-10T21:00:00.003Z,32.62
2019-03-10T21:03:30.776Z,32.78
2019-03-10T21:07:00.797Z,32.92
2019-03-10T21:10:30.800Z,33.07
2019-03-10T21:14:00.912Z,33.21
2019-03-10T21:17:31.014Z,33.35
2019-03-10T21:21:01.137Z,33.51
2019-03-10T21:24:31.501Z,33.66
2019-03-10T21:28:01.488Z,33.8
2019-03-10T21:31:31.608Z,33.91
2019-03-10T21:35:01.709Z,34.04
2019-03-10T21:38:31.776Z,34.16
2019-03-10T21:42:01.823Z,34.3
2019-03-10T21:45:32.250Z,34.4
2019-03-10T21:49:03.432Z,34.55
2019-03-10T21:52:33.474Z,34.65
2019-03-10T21:56:03.436Z,34.8
2019-03-10T21:59:33.470Z,34.89
2019-03-10T22:00:16.931Z,34.93
2019-03-10T22:03:47.097Z,35.03
2019-03-10T22:07:17.163Z,35.15
2019-03-10T22:10:47.275Z,35.28
2019-03-10T22:14:17.377Z,35.39
2019-03-10T22:17:47.559Z,35.49
2019-03-10T22:21:17.675Z,35.59
2019-03-10T22:24:47.794Z,35.69
2019-03-10T22:28:17.886Z,35.84
2019-03-10T22:31:47.898Z,35.97
2019-03-10T22:35:18.054Z,36.08
2019-03-10T22:38:48.042Z,36.2
2019-03-10T22:42:18.074Z,36.31
2019-03-10T22:45:48.137Z,36.43
2019-03-10T22:49:18.370Z,36.55
2019-03-10T22:52:48.419Z,36.64
2019-03-10T22:56:18.461Z,36.77
2019-03-10T22:59:48.623Z,36.86
2019-03-10T23:03:18.747Z,37.01
2019-03-10T23:06:48.938Z,37.06
2019-03-10T23:10:19.139Z,37.13
2019-03-10T23:13:49.161Z,37.25
2019-03-10T23:17:19.633Z,37.37
2019-03-10T23:20:49.655Z,37.48
2019-03-10T23:24:19.728Z,37.59
2019-03-10T23:27:49.909Z,37.72
2019-03-10T23:31:20.082Z,37.81
2019-03-10T23:34:50.083Z,37.94
2019-03-10T23:38:20.145Z,38.06
2019-03-10T23:41:50.230Z,38.16
2019-03-10T23:45:20.299Z,38.29
2019-03-10T23:48:50.322Z,38.4
2019-03-10T23:52:21.314Z,38.5
2019-03-10T23:55:51.338Z,38.62
2019-03-10T23:59:21.468Z,38.72
